Time;durP1;ratioP1;P1;durP2;ratioP2;P2;SDS_P1;SDS_P2;PMS_P1;PMS_P2;Temp;Humidity;BMP_temperature;BMP_pressure;BME280_temperature;BME280_humidity;BME280_pressure;Samples;Min_cycle;Max_cycle;Signal;HPM_P1;HPM_P2
2022/07/30 00:00:00;;;;;;;2.25;1.50;;;24.80;92.50;;;;;;5031915;28;20041;-24
2022/07/30 00:02:26;;;;;;;3.03;1.33;;;24.80;92.50;;;;;;5014758;28;20479;-24
2022/07/30 00:04:54;;;;;;;1.70;1.30;;;24.80;92.40;;;;;;5033355;28;20500;-24
2022/07/30 00:07:20;;;;;;;2.83;1.25;;;24.80;92.40;;;;;;5031963;28;20041;-24
2022/07/30 00:09:46;;;;;;;2.67;1.50;;;24.80;92.40;;;;;;5031520;28;20041;-24
2022/07/30 00:12:11;;;;;;;2.53;1.55;;;24.80;92.40;;;;;;5031850;28;20062;-24
2022/07/30 00:14:37;;;;;;;1.98;1.33;;;24.80;92.40;;;;;;5031659;28;20109;-24
2022/07/30 00:17:04;;;;;;;2.97;1.30;;;24.80;92.40;;;;;;5032166;28;20590;-24
2022/07/30 00:19:29;;;;;;;2.40;1.55;;;24.70;92.40;;;;;;5031681;28;20096;-24
2022/07/30 00:21:55;;;;;;;2.22;1.33;;;24.70;92.40;;;;;;5031804;28;20056;-24
2022/07/30 00:24:21;;;;;;;2.55;1.50;;;24.70;92.40;;;;;;5031553;28;20095;-24
2022/07/30 00:26:47;;;;;;;3.42;1.45;;;24.70;92.40;;;;;;5031679;28;20029;-24
2022/07/30 00:29:13;;;;;;;2.47;1.30;;;24.70;92.40;;;;;;5031563;28;20061;-24
2022/07/30 00:31:39;;;;;;;5.38;1.40;;;24.70;92.40;;;;;;5033061;28;20498;-24
2022/07/30 00:34:04;;;;;;;2.00;1.27;;;24.70;92.40;;;;;;5034938;28;20040;-24
2022/07/30 00:36:30;;;;;;;2.90;1.33;;;24.70;92.40;;;;;;5035188;28;20025;-24
2022/07/30 00:38:56;;;;;;;1.48;1.20;;;24.70;92.30;;;;;;5034822;28;20026;-24
2022/07/30 00:41:27;;;;;;;4.05;1.52;;;24.70;92.30;;;;;;5034921;28;20032;-24
2022/07/30 00:43:53;;;;;;;3.60;1.50;;;24.70;92.30;;;;;;5035046;28;20040;-24
2022/07/30 00:46:19;;;;;;;2.20;1.50;;;24.70;92.30;;;;;;5035184;28;20025;-24
2022/07/30 00:48:44;;;;;;;1.88;1.35;;;24.70;92.30;;;;;;5034858;28;20030;-24
2022/07/30 00:51:10;;;;;;;2.55;1.50;;;24.70;92.30;;;;;;5034859;28;20017;-24
2022/07/30 00:53:38;;;;;;;4.43;1.30;;;24.70;92.30;;;;;;5034811;28;20024;-24
2022/07/30 00:56:04;;;;;;;4.05;1.40;;;24.70;92.30;;;;;;5034752;28;20559;-24
2022/07/30 00:58:30;;;;;;;3.63;1.38;;;24.70;92.30;;;;;;5034574;28;20026;-24
2022/07/30 01:00:56;;;;;;;2.53;1.70;;;24.60;92.30;;;;;;5034846;28;20521;-24
2022/07/30 01:03:22;;;;;;;2.50;1.48;;;24.60;92.30;;;;;;5034537;28;20025;-23
2022/07/30 01:05:48;;;;;;;1.30;1.20;;;24.60;92.30;;;;;;5034559;28;20025;-24
2022/07/30 01:08:13;;;;;;;2.83;1.50;;;24.60;92.30;;;;;;5034353;28;20068;-24
2022/07/30 01:10:39;;;;;;;4.10;1.52;;;24.60;92.30;;;;;;5034443;28;20026;-24
2022/07/30 01:13:06;;;;;;;1.88;1.20;;;24.60;92.30;;;;;;5035010;28;20060;-24
2022/07/30 01:15:32;;;;;;;3.30;1.40;;;24.60;92.30;;;;;;5034513;28;20526;-24
2022/07/30 01:18:02;;;;;;;2.03;1.50;;;24.60;92.30;;;;;;5034515;28;20068;-24
2022/07/30 01:20:47;;;;;;;4.30;1.40;;;24.60;92.30;;;;;;5034182;28;20483;-24
2022/07/30 01:23:35;;;;;;;2.20;1.23;;;24.60;92.30;;;;;;5034324;28;20040;-24
2022/07/30 01:26:08;;;;;;;2.55;1.60;;;24.60;92.30;;;;;;5034367;28;20026;-24
2022/07/30 01:28:42;;;;;;;2.17;1.50;;;24.60;92.30;;;;;;5033999;28;20073;-24
2022/07/30 01:31:09;;;;;;;2.00;1.30;;;24.60;92.30;;;;;;5034403;28;20033;-24
2022/07/30 01:33:40;;;;;;;1.52;1.20;;;24.60;92.30;;;;;;5033791;28;20280;-24
2022/07/30 01:36:09;;;;;;;2.60;1.30;;;24.60;92.30;;;;;;5034315;28;20108;-24
2022/07/30 01:38:37;;;;;;;5.97;1.33;;;24.60;92.20;;;;;;5033995;28;20393;-24
2022/07/30 01:41:05;;;;;;;2.05;1.42;;;24.60;92.20;;;;;;5033999;28;20025;-24
2022/07/30 01:43:34;;;;;;;3.42;1.45;;;24.50;92.20;;;;;;5033212;28;20024;-24
2022/07/30 01:46:01;;;;;;;2.97;1.42;;;24.50;92.20;;;;;;5033813;28;20382;-24
2022/07/30 01:48:29;;;;;;;3.83;1.48;;;24.50;92.20;;;;;;5033462;28;20515;-24
2022/07/30 01:50:59;;;;;;;1.90;1.38;;;24.50;92.20;;;;;;5033571;28;20036;-24
2022/07/30 01:53:28;;;;;;;2.08;1.40;;;24.50;92.20;;;;;;5033693;28;20022;-24
2022/07/30 01:55:55;;;;;;;2.50;1.42;;;24.50;92.20;;;;;;5033627;28;20021;-24
2022/07/30 01:58:25;;;;;;;2.25;1.30;;;24.50;92.30;;;;;;5015592;28;20053;-24
2022/07/30 02:00:54;;;;;;;2.40;1.42;;;24.50;92.20;;;;;;5033502;28;20391;-24
2022/07/30 02:03:21;;;;;;;1.67;1.40;;;24.50;92.20;;;;;;5033455;28;20022;-24
2022/07/30 02:05:52;;;;;;;2.08;1.45;;;24.50;92.20;;;;;;5033503;28;20069;-24
2022/07/30 02:08:32;;;;;;;1.85;1.20;;;24.50;92.20;;;;;;5033190;28;20071;-24
2022/07/30 02:11:11;;;;;;;2.03;1.30;;;24.50;92.30;;;;;;5033539;28;20334;-24
2022/07/30 02:13:47;;;;;;;2.85;1.33;;;24.50;92.30;;;;;;5033255;28;20028;-24
2022/07/30 02:16:22;;;;;;;1.88;1.38;;;24.50;92.30;;;;;;5033216;28;20026;-24
2022/07/30 02:18:55;;;;;;;3.08;1.40;;;24.50;92.30;;;;;;5033109;28;20104;-24
2022/07/30 02:21:23;;;;;;;2.40;1.48;;;24.50;92.30;;;;;;5033170;28;20032;-24
2022/07/30 02:23:50;;;;;;;2.05;1.45;;;24.50;92.20;;;;;;5032901;28;20402;-24
2022/07/30 02:26:23;;;;;;;1.67;1.42;;;24.50;92.30;;;;;;5033047;28;20030;-24
2022/07/30 02:28:53;;;;;;;1.80;1.50;;;24.50;92.60;;;;;;5032664;28;20022;-24
2022/07/30 02:31:21;;;;;;;2.47;1.50;;;24.50;92.30;;;;;;5032942;28;20027;-24
2022/07/30 02:33:49;;;;;;;3.58;1.63;;;24.50;92.20;;;;;;5032650;28;20036;-24
2022/07/30 02:36:17;;;;;;;1.60;1.23;;;24.50;92.30;;;;;;5014835;28;20532;-24
2022/07/30 02:38:44;;;;;;;1.60;1.30;;;24.50;92.20;;;;;;5032506;28;20074;-24
2022/07/30 02:41:11;;;;;;;3.35;1.38;;;24.50;92.20;;;;;;5032683;28;20025;-24
2022/07/30 02:43:39;;;;;;;2.25;1.77;;;24.50;92.30;;;;;;5032593;28;20029;-24
2022/07/30 02:46:06;;;;;;;2.38;1.52;;;24.50;92.20;;;;;;5032755;28;20028;-24
2022/07/30 02:48:33;;;;;;;2.00;1.20;;;24.40;92.20;;;;;;5032185;28;20429;-24
2022/07/30 02:51:03;;;;;;;1.75;1.42;;;24.40;92.20;;;;;;5032472;28;20759;-24
2022/07/30 02:53:31;;;;;;;1.92;1.40;;;24.40;92.20;;;;;;5032459;28;20014;-24
2022/07/30 02:55:58;;;;;;;1.90;1.38;;;24.40;92.20;;;;;;5031599;28;20037;-24
2022/07/30 02:58:25;;;;;;;2.28;1.60;;;24.40;92.20;;;;;;5032206;28;20022;-24
2022/07/30 03:00:53;;;;;;;4.00;1.60;;;24.40;92.20;;;;;;5032617;28;20021;-24
2022/07/30 03:03:20;;;;;;;2.15;1.35;;;24.40;92.20;;;;;;5035039;28;20060;-24
2022/07/30 03:05:49;;;;;;;2.33;1.50;;;24.40;92.20;;;;;;5035163;28;20022;-24
2022/07/30 03:08:15;;;;;;;3.67;1.60;;;24.40;92.20;;;;;;5032320;28;20057;-24
2022/07/30 03:10:43;;;;;;;3.70;1.52;;;24.40;92.20;;;;;;5015097;28;20553;-24
2022/07/30 03:13:10;;;;;;;2.00;1.42;;;24.40;92.20;;;;;;5032345;28;20040;-25
2022/07/30 03:15:40;;;;;;;2.05;1.45;;;24.40;92.20;;;;;;5032365;28;20278;-24
2022/07/30 03:18:10;;;;;;;2.15;1.50;;;24.40;92.20;;;;;;5032188;28;20018;-25
2022/07/30 03:20:37;;;;;;;1.98;1.48;;;24.40;92.20;;;;;;5032305;28;20386;-25
2022/07/30 03:23:04;;;;;;;1.33;1.23;;;24.40;92.20;;;;;;5032077;28;20036;-25
2022/07/30 03:25:31;;;;;;;3.63;1.45;;;24.40;92.20;;;;;;5032021;28;20110;-25
2022/07/30 03:27:59;;;;;;;3.22;1.45;;;24.40;92.20;;;;;;5031934;28;20049;-25
2022/07/30 03:30:27;;;;;;;3.05;1.80;;;24.40;92.20;;;;;;5031711;28;20383;-25
2022/07/30 03:32:54;;;;;;;1.95;1.50;;;24.30;92.10;;;;;;5031724;28;20040;-25
2022/07/30 03:35:23;;;;;;;2.15;1.40;;;24.30;92.10;;;;;;5032481;28;20382;-24
2022/07/30 03:37:50;;;;;;;2.67;1.58;;;24.30;92.10;;;;;;5031970;28;20022;-25
2022/07/30 03:40:17;;;;;;;2.70;1.52;;;24.30;92.10;;;;;;5031953;28;20021;-24
2022/07/30 03:42:44;;;;;;;2.72;1.55;;;24.30;92.10;;;;;;5031937;28;20027;-25
2022/07/30 03:45:14;;;;;;;3.75;1.95;;;24.30;92.10;;;;;;5032336;28;20084;-24
2022/07/30 03:47:41;;;;;;;2.65;1.50;;;24.30;92.10;;;;;;5032156;28;20364;-24
2022/07/30 03:50:09;;;;;;;2.10;1.50;;;24.30;92.10;;;;;;5031767;28;20147;-24
2022/07/30 03:52:39;;;;;;;2.40;1.58;;;24.30;92.10;;;;;;5032081;28;20100;-24
2022/07/30 03:55:07;;;;;;;3.40;1.40;;;24.30;92.10;;;;;;5031870;28;20029;-25
2022/07/30 03:57:32;;;;;;;1.92;1.40;;;24.30;92.10;;;;;;5032484;28;20379;-25
2022/07/30 03:59:58;;;;;;;1.80;1.30;;;24.30;92.00;;;;;;5032433;28;20042;-25
2022/07/30 04:02:24;;;;;;;4.93;1.63;;;24.30;92.10;;;;;;5032739;28;20600;-25
2022/07/30 04:04:50;;;;;;;3.00;1.92;;;24.30;92.40;;;;;;5032016;28;20026;-25
2022/07/30 04:07:16;;;;;;;3.60;1.90;;;24.30;92.00;;;;;;5034495;28;20506;-25
2022/07/30 04:09:42;;;;;;;2.25;1.60;;;24.20;92.00;;;;;;5017519;28;20083;-24
2022/07/30 04:12:08;;;;;;;2.45;1.77;;;24.20;92.00;;;;;;5035548;28;20026;-24
2022/07/30 04:14:42;;;;;;;2.28;1.55;;;24.20;92.00;;;;;;5035420;28;20104;-25
2022/07/30 04:17:21;;;;;;;2.65;1.80;;;24.20;92.00;;;;;;5035428;28;20022;-25
2022/07/30 04:19:55;;;;;;;2.20;1.52;;;24.20;92.00;;;;;;5035148;28;20040;-24
2022/07/30 04:22:26;;;;;;;3.83;1.63;;;24.20;92.00;;;;;;5035467;28;20095;-25
2022/07/30 04:24:52;;;;;;;2.20;1.50;;;24.20;92.00;;;;;;5035879;28;20451;-25
2022/07/30 04:27:19;;;;;;;3.75;1.60;;;24.20;92.00;;;;;;5035412;28;20045;-24
2022/07/30 04:29:45;;;;;;;1.90;1.48;;;24.20;92.00;;;;;;5017420;28;20120;-25
2022/07/30 04:32:11;;;;;;;2.17;1.50;;;24.20;92.00;;;;;;5035327;28;20014;-25
2022/07/30 04:34:48;;;;;;;1.98;1.70;;;24.20;92.00;;;;;;5036052;28;20036;-24
2022/07/30 04:37:18;;;;;;;1.77;1.60;;;24.20;92.00;;;;;;5035365;28;20022;-24
2022/07/30 04:39:44;;;;;;;2.13;1.50;;;24.20;92.00;;;;;;5035037;28;20036;-24
2022/07/30 04:42:10;;;;;;;2.13;1.30;;;24.20;92.00;;;;;;5035576;28;20117;-24
2022/07/30 04:44:45;;;;;;;4.40;1.90;;;24.20;92.00;;;;;;5035147;28;20033;-25
2022/07/30 04:47:11;;;;;;;2.22;1.30;;;24.10;91.90;;;;;;5035910;28;20034;-25
2022/07/30 04:49:38;;;;;;;1.60;1.50;;;24.10;91.90;;;;;;5034672;28;20033;-25
2022/07/30 04:52:06;;;;;;;1.75;1.63;;;24.10;91.90;;;;;;5035153;28;20112;-25
2022/07/30 04:55:02;;;;;;;2.28;1.60;;;24.10;91.90;;;;;;5035094;28;20022;-25
2022/07/30 04:57:30;;;;;;;2.92;1.90;;;24.10;92.00;;;;;;5031787;28;20073;-24
2022/07/30 04:59:59;;;;;;;3.25;1.85;;;24.10;92.00;;;;;;5034637;28;20386;-25
2022/07/30 05:02:28;;;;;;;2.75;1.52;;;24.10;92.00;;;;;;5034749;28;20079;-25
2022/07/30 05:04:56;;;;;;;2.58;1.60;;;24.10;92.00;;;;;;5034623;28;20033;-25
2022/07/30 05:07:22;;;;;;;3.17;1.70;;;24.10;92.00;;;;;;5034902;28;20033;-25
2022/07/30 05:09:48;;;;;;;2.05;1.58;;;24.10;92.00;;;;;;5034346;28;20120;-24
2022/07/30 05:12:14;;;;;;;4.72;1.73;;;24.10;92.00;;;;;;5034704;28;20297;-25
2022/07/30 05:14:40;;;;;;;2.10;1.77;;;24.00;92.00;;;;;;5034432;28;20053;-25
2022/07/30 05:17:06;;;;;;;2.78;1.40;;;24.00;92.00;;;;;;5034430;28;20056;-24
2022/07/30 05:19:32;;;;;;;1.90;1.27;;;24.00;92.00;;;;;;5033591;28;20457;-25
2022/07/30 05:21:58;;;;;;;2.03;1.50;;;24.00;92.00;;;;;;5034435;28;20490;-24
2022/07/30 05:24:24;;;;;;;1.85;1.65;;;24.00;92.00;;;;;;5034417;28;20040;-25
2022/07/30 05:26:50;;;;;;;2.70;1.88;;;24.00;92.00;;;;;;5034413;28;20382;-24
2022/07/30 05:29:15;;;;;;;2.40;1.60;;;24.00;92.00;;;;;;5033797;28;20030;-24
2022/07/30 05:31:41;;;;;;;2.28;1.50;;;24.00;92.00;;;;;;5034236;28;20026;-24
2022/07/30 05:34:07;;;;;;;1.95;1.45;;;24.00;92.00;;;;;;5056553;22;20521;-26
2022/07/30 05:36:33;;;;;;;3.15;1.50;;;24.00;92.00;;;;;;5034188;28;20104;-27
2022/07/30 05:38:59;;;;;;;2.35;1.70;;;24.00;92.00;;;;;;5033628;28;20108;-27
2022/07/30 05:41:28;;;;;;;2.10;1.70;;;24.00;92.00;;;;;;5033711;28;20478;-27
2022/07/30 05:43:54;;;;;;;3.80;1.95;;;24.00;92.10;;;;;;5033659;28;20114;-27
2022/07/30 05:46:20;;;;;;;3.20;1.50;;;23.90;92.00;;;;;;5033657;28;20034;-27
2022/07/30 05:48:45;;;;;;;2.13;1.77;;;23.90;92.10;;;;;;5033352;28;20029;-27
2022/07/30 05:51:11;;;;;;;3.38;1.40;;;23.90;92.10;;;;;;5033663;28;20423;-27
2022/07/30 05:53:37;;;;;;;2.15;1.63;;;23.90;92.10;;;;;;5033880;28;20017;-27
2022/07/30 05:56:02;;;;;;;2.00;1.40;;;23.90;92.10;;;;;;5033359;28;20033;-27
2022/07/30 05:58:28;;;;;;;2.28;1.67;;;23.90;92.10;;;;;;5033240;28;20017;-27
2022/07/30 06:00:54;;;;;;;2.70;1.45;;;23.90;92.10;;;;;;5033402;28;20516;-27
2022/07/30 06:03:19;;;;;;;3.20;1.80;;;23.90;92.10;;;;;;5033307;28;20382;-27
2022/07/30 06:05:45;;;;;;;4.80;1.90;;;23.90;92.20;;;;;;5015563;28;20021;-27
2022/07/30 06:08:11;;;;;;;2.97;2.00;;;23.90;92.20;;;;;;5033101;28;20049;-27
2022/07/30 06:10:36;;;;;;;1.95;1.60;;;23.90;92.20;;;;;;5033013;28;20029;-27
2022/07/30 06:13:02;;;;;;;1.90;1.50;;;23.90;92.20;;;;;;5033212;28;20034;-27
2022/07/30 06:15:28;;;;;;;1.67;1.50;;;23.90;92.20;;;;;;5033081;28;20030;-27
2022/07/30 06:17:56;;;;;;;2.10;1.50;;;23.90;92.20;;;;;;5033141;28;20053;-27
2022/07/30 06:20:22;;;;;;;3.53;1.60;;;23.90;92.20;;;;;;5032895;28;20030;-27
2022/07/30 06:22:47;;;;;;;1.90;1.48;;;23.90;92.20;;;;;;5032940;28;20021;-27
2022/07/30 06:25:13;;;;;;;3.85;2.20;;;23.90;92.20;;;;;;5032737;28;20033;-27
2022/07/30 06:27:39;;;;;;;6.82;2.88;;;23.80;92.10;;;;;;5032860;28;20493;-27
2022/07/30 06:30:07;;;;;;;8.30;2.70;;;23.70;91.60;;;;;;5032291;28;20036;-27
2022/07/30 06:32:34;;;;;;;6.82;2.80;;;23.40;91.60;;;;;;5032795;28;20103;-27
2022/07/30 06:35:00;;;;;;;7.15;2.85;;;23.30;91.60;;;;;;5014774;28;20083;-27
2022/07/30 06:37:26;;;;;;;5.00;2.75;;;23.10;91.70;;;;;;5032678;28;20025;-27
2022/07/30 06:39:52;;;;;;;5.07;2.63;;;23.00;92.00;;;;;;5032338;28;20036;-26
2022/07/30 06:42:17;;;;;;;5.10;3.00;;;23.00;92.00;;;;;;5032568;28;20029;-26
2022/07/30 06:44:43;;;;;;;4.32;2.80;;;22.90;92.10;;;;;;5032590;28;20036;-26
2022/07/30 06:47:09;;;;;;;12.68;2.55;;;22.90;92.30;;;;;;5032520;28;20025;-26
2022/07/30 06:49:36;;;;;;;6.38;2.78;;;23.00;92.20;;;;;;5032598;28;20029;-26
2022/07/30 06:52:01;;;;;;;6.10;2.78;;;23.20;92.20;;;;;;5032471;28;20049;-26
2022/07/30 06:54:27;;;;;;;6.70;2.63;;;23.30;92.00;;;;;;5032272;28;20069;-26
2022/07/30 06:56:53;;;;;;;8.27;2.45;;;23.40;91.90;;;;;;5032412;28;20478;-26
2022/07/30 06:59:19;;;;;;;4.10;2.28;;;23.50;91.70;;;;;;5032219;28;20111;-26
2022/07/30 07:01:45;;;;;;;5.57;2.35;;;23.60;91.60;;;;;;5032261;28;20063;-26
2022/07/30 07:04:10;;;;;;;6.13;2.35;;;23.70;91.60;;;;;;5032196;28;20026;-26
2022/07/30 07:06:37;;;;;;;4.57;2.22;;;23.70;91.50;;;;;;5032294;28;20113;-26
2022/07/30 07:09:03;;;;;;;6.03;2.13;;;23.80;91.40;;;;;;5031706;28;20033;-26
2022/07/30 07:11:29;;;;;;;4.80;2.30;;;23.90;91.40;;;;;;5032135;28;20467;-26
2022/07/30 07:13:54;;;;;;;4.05;2.22;;;23.90;91.30;;;;;;5032008;28;20040;-26
2022/07/30 07:16:23;;;;;;;3.30;2.17;;;23.90;91.40;;;;;;5032116;28;20021;-26
2022/07/30 07:18:52;;;;;;;3.90;2.38;;;23.90;91.40;;;;;;5032189;28;20021;-26
2022/07/30 07:21:19;;;;;;;5.60;2.38;;;23.90;91.40;;;;;;5032060;28;20028;-26
2022/07/30 07:23:47;;;;;;;2.67;1.92;;;23.90;91.30;;;;;;5031872;28;20099;-26
2022/07/30 07:26:13;;;;;;;3.88;2.10;;;23.90;91.30;;;;;;5032090;28;20116;-26
2022/07/30 07:28:39;;;;;;;1.90;1.80;;;23.90;91.30;;;;;;5031626;28;20029;-26
2022/07/30 07:31:06;;;;;;;2.75;2.10;;;23.90;91.30;;;;;;5032258;28;20025;-26
2022/07/30 07:33:31;;;;;;;2.92;1.98;;;23.90;91.30;;;;;;5031753;28;20036;-26
2022/07/30 07:35:57;;;;;;;3.15;1.90;;;23.90;91.70;;;;;;5031869;28;20025;-26
2022/07/30 07:38:23;;;;;;;3.35;2.20;;;23.90;91.40;;;;;;5031483;28;20029;-26
2022/07/30 07:40:48;;;;;;;3.53;1.75;;;23.90;91.40;;;;;;5031937;28;20025;-26
2022/07/30 07:43:14;;;;;;;2.90;1.70;;;23.90;91.40;;;;;;5035784;28;20041;-26
2022/07/30 07:45:41;;;;;;;3.00;1.83;;;23.90;91.40;;;;;;5035899;28;20029;-26
2022/07/30 07:48:07;;;;;;;3.53;1.90;;;23.90;91.40;;;;;;5035828;28;20026;-26
2022/07/30 07:50:33;;;;;;;3.38;1.90;;;23.90;91.40;;;;;;5035550;28;20152;-26
2022/07/30 07:52:59;;;;;;;2.95;1.90;;;23.90;91.40;;;;;;5035719;28;20044;-26
2022/07/30 07:55:24;;;;;;;2.78;2.05;;;24.00;91.40;;;;;;5035802;28;20017;-26
2022/07/30 07:57:50;;;;;;;2.78;1.88;;;23.90;91.30;;;;;;5035623;28;20022;-26
2022/07/30 08:00:16;;;;;;;3.90;1.80;;;23.90;91.20;;;;;;5017687;28;20022;-26
2022/07/30 08:02:43;;;;;;;2.13;1.60;;;23.90;91.10;;;;;;5035663;28;20037;-26
2022/07/30 08:05:11;;;;;;;3.13;1.60;;;24.00;91.10;;;;;;5035421;28;20025;-26
2022/07/30 08:07:37;;;;;;;7.28;1.80;;;24.00;91.10;;;;;;5035385;28;20424;-26
2022/07/30 08:10:04;;;;;;;3.75;1.52;;;23.90;86.90;;;;;;5035223;28;20380;-26
2022/07/30 08:12:30;;;;;;;8.80;1.80;;;23.90;86.70;;;;;;5035399;28;20021;-26
2022/07/30 08:14:56;;;;;;;6.68;1.80;;;23.90;87.00;;;;;;5035311;28;20450;-26
2022/07/30 08:17:21;;;;;;;4.45;1.75;;;24.00;87.10;;;;;;5035328;28;20032;-26
2022/07/30 08:19:47;;;;;;;3.33;1.70;;;24.10;87.00;;;;;;5035459;28;20025;-26
2022/07/30 08:22:12;;;;;;;6.80;1.70;;;24.10;87.20;;;;;;5035291;28;20065;-26
2022/07/30 08:24:38;;;;;;;6.93;1.67;;;24.10;87.30;;;;;;5035210;28;20107;-26
2022/07/30 08:27:04;;;;;;;4.22;1.65;;;24.20;87.60;;;;;;5035386;28;20168;-26
2022/07/30 08:29:29;;;;;;;3.55;1.70;;;24.10;87.70;;;;;;5017029;28;20524;-26
2022/07/30 08:31:55;;;;;;;6.10;1.63;;;24.20;87.80;;;;;;5035105;28;20516;-26
2022/07/30 08:34:21;;;;;;;5.07;1.67;;;24.20;87.40;;;;;;5034784;28;20030;-26
2022/07/30 08:36:47;;;;;;;4.93;1.80;;;24.20;87.20;;;;;;5034981;28;20018;-26
2022/07/30 08:39:13;;;;;;;6.90;1.80;;;24.20;87.10;;;;;;5034781;28;20100;-26
2022/07/30 08:41:40;;;;;;;2.60;1.50;;;24.20;87.20;;;;;;5034830;28;20105;-26
2022/07/30 08:44:09;;;;;;;8.38;1.48;;;24.20;87.30;;;;;;5034738;28;20026;-26
2022/07/30 08:46:38;;;;;;;3.35;1.42;;;24.20;87.60;;;;;;5034832;28;20033;-26
2022/07/30 08:49:04;;;;;;;3.42;1.30;;;24.20;87.80;;;;;;5034376;28;20217;-26
2022/07/30 08:51:30;;;;;;;2.83;1.38;;;24.20;87.90;;;;;;5034773;28;20537;-26
2022/07/30 08:53:56;;;;;;;3.08;1.40;;;24.20;88.00;;;;;;5034476;28;20029;-26
2022/07/30 08:56:22;;;;;;;4.57;1.65;;;24.10;88.20;;;;;;5034586;28;20100;-26
2022/07/30 08:58:48;;;;;;;5.65;1.33;;;24.20;88.20;;;;;;5034348;28;20101;-26
2022/07/30 09:01:14;;;;;;;2.40;1.40;;;24.20;88.30;;;;;;5034542;28;20018;-26
2022/07/30 09:03:40;;;;;;;3.70;1.45;;;24.20;88.40;;;;;;5034295;28;20036;-26
2022/07/30 09:06:05;;;;;;;5.32;1.38;;;24.20;88.60;;;;;;5034916;28;20025;-26
2022/07/30 09:08:31;;;;;;;2.38;1.20;;;24.20;88.60;;;;;;5034171;28;20044;-26
2022/07/30 09:10:58;;;;;;;2.78;1.35;;;24.20;88.80;;;;;;5034235;28;20394;-26
2022/07/30 09:13:29;;;;;;;1.58;1.23;;;24.20;88.80;;;;;;5034249;28;20364;-26
2022/07/30 09:15:56;;;;;;;2.15;1.15;;;24.20;88.90;;;;;;5034249;28;20025;-26
2022/07/30 09:18:29;;;;;;;2.72;1.30;;;24.30;88.90;;;;;;5033996;28;20026;-26
2022/07/30 09:20:55;;;;;;;2.35;1.15;;;24.30;89.00;;;;;;5034434;28;20355;-26
2022/07/30 09:23:20;;;;;;;2.58;1.13;;;24.30;88.90;;;;;;5034143;28;20032;-26
2022/07/30 09:25:48;;;;;;;3.83;1.25;;;24.30;88.90;;;;;;5034045;28;20028;-26
2022/07/30 09:28:14;;;;;;;4.32;1.38;;;24.30;88.90;;;;;;5033871;28;20386;-26
2022/07/30 09:30:52;;;;;;;1.80;1.17;;;24.40;89.00;;;;;;5033806;28;20052;-25
2022/07/30 09:33:38;;;;;;;2.28;1.10;;;24.40;89.00;;;;;;5033770;28;20022;-26
2022/07/30 09:36:09;;;;;;;2.17;1.27;;;24.40;89.10;;;;;;5033959;28;20104;-26
2022/07/30 09:38:49;;;;;;;3.70;1.00;;;24.40;89.10;;;;;;5033618;28;20486;-26
2022/07/30 09:41:21;;;;;;;2.20;1.38;;;24.50;89.20;;;;;;5033948;28;20033;-26
2022/07/30 09:43:49;;;;;;;2.80;1.00;;;24.50;89.20;;;;;;5033813;28;20160;-26
2022/07/30 09:46:15;;;;;;;1.50;1.08;;;24.50;89.20;;;;;;5033798;28;20271;-26
2022/07/30 09:48:41;;;;;;;2.88;1.00;;;24.50;89.20;;;;;;5033421;28;20428;-26
2022/07/30 09:51:08;;;;;;;2.03;1.10;;;24.50;89.20;;;;;;5033712;28;20565;-26
2022/07/30 09:53:34;;;;;;;3.33;1.27;;;24.50;89.20;;;;;;5033405;28;20387;-26
2022/07/30 09:56:00;;;;;;;1.55;1.00;;;24.50;89.20;;;;;;5033477;28;20030;-26
2022/07/30 09:58:40;;;;;;;1.40;0.90;;;24.50;89.20;;;;;;5033277;28;20033;-26
2022/07/30 10:01:06;;;;;;;2.25;1.20;;;24.50;89.30;;;;;;5033453;28;20032;-26
2022/07/30 10:03:32;;;;;;;1.42;0.95;;;24.50;89.30;;;;;;5032985;28;20029;-26
2022/07/30 10:05:59;;;;;;;3.03;1.30;;;24.50;89.40;;;;;;5033044;28;20445;-26
2022/07/30 10:08:46;;;;;;;1.45;1.08;;;24.50;89.50;;;;;;5033013;28;20025;-26
2022/07/30 10:11:17;;;;;;;2.30;0.93;;;24.50;89.50;;;;;;5033282;28;20021;-26
2022/07/30 10:13:44;;;;;;;3.25;1.17;;;24.50;90.00;;;;;;5033153;28;20022;-26
2022/07/30 10:16:10;;;;;;;2.33;1.20;;;24.50;89.60;;;;;;5033234;28;20022;-25
2022/07/30 10:18:36;;;;;;;1.42;1.10;;;24.50;89.60;;;;;;5032859;28;20025;-26
2022/07/30 10:21:03;;;;;;;1.80;1.15;;;24.50;89.50;;;;;;5033157;28;20482;-26
2022/07/30 10:23:31;;;;;;;2.17;1.30;;;24.50;89.50;;;;;;5032965;28;20021;-26
2022/07/30 10:25:58;;;;;;;3.50;1.23;;;24.60;89.50;;;;;;5032968;28;20419;-26
2022/07/30 10:28:25;;;;;;;1.98;1.00;;;24.50;89.40;;;;;;5032702;28;20025;-25
2022/07/30 10:30:52;;;;;;;2.40;1.20;;;24.60;89.50;;;;;;5032833;28;20068;-26
2022/07/30 10:33:22;;;;;;;1.75;1.05;;;24.60;89.50;;;;;;5032437;28;20025;-26
2022/07/30 10:35:47;;;;;;;1.63;1.00;;;24.60;89.50;;;;;;5032788;28;20017;-26
2022/07/30 10:38:16;;;;;;;2.08;1.10;;;24.70;89.50;;;;;;5032496;28;20440;-26
2022/07/30 10:40:57;;;;;;;2.30;0.93;;;24.70;89.40;;;;;;5032678;28;20033;-26
2022/07/30 10:43:50;;;;;;;2.20;0.93;;;24.70;89.40;;;;;;5032621;28;20479;-26
2022/07/30 10:46:42;;;;;;;2.67;1.05;;;24.70;89.40;;;;;;5032637;28;20406;-26
2022/07/30 10:49:09;;;;;;;1.55;1.10;;;24.80;89.40;;;;;;5032339;28;20025;-26
2022/07/30 10:51:42;;;;;;;1.85;0.90;;;24.80;89.30;;;;;;5032559;28;20034;-26
2022/07/30 10:54:41;;;;;;;1.10;0.90;;;24.80;89.30;;;;;;5032140;28;20026;-26
2022/07/30 10:57:13;;;;;;;7.38;1.48;;;24.80;89.30;;;;;;5032414;28;20028;-26
2022/07/30 10:59:54;;;;;;;12.57;2.15;;;24.80;84.30;;;;;;5032168;28;20043;-26
2022/07/30 11:02:21;;;;;;;10.95;1.90;;;24.90;78.10;;;;;;5032167;28;20483;-26
2022/07/30 11:04:47;;;;;;;8.68;1.40;;;25.00;76.40;;;;;;5032173;28;20030;-26
2022/07/30 11:07:28;;;;;;;6.18;1.27;;;25.00;77.10;;;;;;5032200;28;20547;-26
2022/07/30 11:09:59;;;;;;;13.43;1.38;;;25.00;78.00;;;;;;5032095;28;20031;-26
2022/07/30 11:12:40;;;;;;;14.23;1.45;;;25.10;78.80;;;;;;5032278;28;20037;-26
2022/07/30 11:15:07;;;;;;;6.80;1.30;;;25.00;79.60;;;;;;5031830;28;20048;-26
2022/07/30 11:17:57;;;;;;;6.15;1.30;;;25.00;80.20;;;;;;5031601;28;20037;-26
2022/07/30 11:20:23;;;;;;;5.75;1.30;;;25.00;80.80;;;;;;5031915;28;20037;-26
2022/07/30 11:22:49;;;;;;;4.72;1.20;;;25.00;81.20;;;;;;5032011;28;20038;-26
2022/07/30 11:25:21;;;;;;;5.43;1.17;;;25.00;81.50;;;;;;5031799;28;20033;-26
2022/07/30 11:27:50;;;;;;;3.13;1.13;;;25.00;81.90;;;;;;5031938;28;20453;-25
2022/07/30 11:30:16;;;;;;;5.43;1.20;;;25.00;82.10;;;;;;5031671;28;20044;-25
2022/07/30 11:32:42;;;;;;;6.35;1.30;;;25.00;82.40;;;;;;5031886;28;20022;-26
2022/07/30 11:35:25;;;;;;;5.50;1.30;;;25.00;82.50;;;;;;5032349;28;20073;-25
2022/07/30 11:38:10;;;;;;;3.70;1.33;;;25.10;82.80;;;;;;5031611;28;20017;-25
2022/07/30 11:40:45;;;;;;;4.88;1.23;;;25.10;83.00;;;;;;5031859;28;20025;-25
2022/07/30 11:43:28;;;;;;;5.97;1.25;;;25.10;83.20;;;;;;5031783;28;20075;-26
2022/07/30 11:46:08;;;;;;;2.60;0.98;;;25.10;83.40;;;;;;5031909;28;20025;-26
2022/07/30 11:48:36;;;;;;;7.72;1.10;;;25.10;83.40;;;;;;5031573;28;20049;-26
2022/07/30 11:51:02;;;;;;;3.92;1.00;;;25.10;83.60;;;;;;5031691;28;20025;-26
2022/07/30 11:53:28;;;;;;;2.22;1.02;;;25.20;83.60;;;;;;5031611;28;20109;-26
2022/07/30 11:55:56;;;;;;;3.97;1.00;;;25.20;83.80;;;;;;5031755;28;20497;-26
2022/07/30 11:58:26;;;;;;;8.18;1.30;;;25.20;84.00;;;;;;5031517;28;20030;-26
2022/07/30 12:00:53;;;;;;;3.13;1.17;;;25.20;84.10;;;;;;5031599;28;20026;-26
2022/07/30 12:03:22;;;;;;;2.05;0.82;;;25.20;84.20;;;;;;5031598;28;20029;-26
2022/07/30 12:05:48;;;;;;;4.40;1.05;;;25.20;84.30;;;;;;5031598;28;20024;-26
2022/07/30 12:08:15;;;;;;;8.68;1.13;;;25.20;84.30;;;;;;5031391;28;20047;-26
2022/07/30 12:10:42;;;;;;;2.75;0.93;;;25.20;84.30;;;;;;5031547;28;20364;-25
2022/07/30 12:13:14;;;;;;;2.08;1.10;;;25.20;84.40;;;;;;5031449;28;20053;-26
2022/07/30 12:15:42;;;;;;;4.18;1.10;;;25.20;84.60;;;;;;5031574;28;20014;-26
2022/07/30 12:18:11;;;;;;;2.63;1.17;;;25.20;84.70;;;;;;5031415;28;20017;-25
2022/07/30 12:20:37;;;;;;;2.45;1.00;;;25.20;84.80;;;;;;5031472;28;20022;-26
2022/07/30 12:23:09;;;;;;;2.53;1.10;;;25.20;84.90;;;;;;5031370;28;20387;-26
2022/07/30 12:25:38;;;;;;;2.92;1.10;;;25.20;84.90;;;;;;5031494;28;20064;-26
2022/07/30 12:28:04;;;;;;;1.88;0.98;;;25.20;85.00;;;;;;5033440;28;20163;-26
2022/07/30 12:30:29;;;;;;;1.48;0.77;;;25.20;85.00;;;;;;5034930;28;20029;-26
2022/07/30 12:32:55;;;;;;;2.15;1.10;;;25.20;85.10;;;;;;5034960;28;20025;-26
2022/07/30 12:35:21;;;;;;;3.08;1.10;;;25.30;85.10;;;;;;5035114;28;20025;-26
2022/07/30 12:38:03;;;;;;;1.63;0.80;;;25.30;85.10;;;;;;5034920;28;20040;-26
2022/07/30 12:40:29;;;;;;;1.60;0.80;;;25.30;85.10;;;;;;5034746;28;20104;-26
2022/07/30 12:42:55;;;;;;;2.90;1.33;;;25.30;85.10;;;;;;5034830;28;20041;-26
2022/07/30 12:45:30;;;;;;;1.70;0.90;;;25.30;85.20;;;;;;5034871;28;20026;-26
2022/07/30 12:47:57;;;;;;;2.30;0.95;;;25.30;85.10;;;;;;5034782;28;20505;-26
2022/07/30 12:50:22;;;;;;;3.58;0.85;;;25.30;85.30;;;;;;5034459;28;20167;-25